Nature

Eilat Airport (ETH/LLET) is an Israeli airport located in the city of Eilat and named for Arkia Airlines founder Yakov Hozman (Jacob Housman).
Eilat Airport is located in the central area of the city, next to Route 90 (The Arava Road).
It mostly handles domestic flights to Tel Aviv and Haifa with international flights operating instead to Uvda International Airport.
Eilat Airport is the southernmost airport in the State of Israel.
The Eilat Airport was established in 1949 and currently averages about 1,424,098 and 19,392 aircraft per year.

At Eilat Airport you can find a single runway (21/03).

Scenery:

Sim Download Size Author
P3D & FSX LLET Eilat 33.3MB Freeware ISP
P3D & FSX ICVFR Eilat Scenery 73.8MB Freeware Chris Bell

Charts:

File Name
General Aerodrome Chart
Ground Parkings Chart
CVFR Entry / Exit Routes (CVFR)
CVFR Entry / exit routes (CVFR), using an east approach
Departure SAMAR1A, SAMAR1B RWY 21/03
CVFR Traffic Pattrens Chart
Approach KITOR Y VIS RWY 21
Approach NESICHA VIS RWY 03

METAR & TAF:

Available data for LLET from the past hour
ELAT/J. HOZMAN(A
Metar
LLET 140650Z 05005KT CAVOK 21/12 Q1011

06:50 UTC

Wind: 50° 5kt

Visibility:

Sky:

Temp: 21 deg C / 69.8 deg F

Dewpoint: 12 deg C / 53.6 deg F

Pressure: 1011 hPa

TAF
TAF LLET 140509Z 1406/1506 36010KT 9999 FEW050 PROB30 1409/1505 7000 RA FEW040TCU SCT050 TX26/1412Z TN17/1504Z